Time;durP1;ratioP1;P1;durP2;ratioP2;P2;SDS_P1;SDS_P2;PMS_P1;PMS_P2;Temp;Humidity;BMP_temperature;BMP_pressure;BME280_temperature;BME280_humidity;BME280_pressure;Samples;Min_cycle;Max_cycle;Signal;HPM_P1;HPM_P2
2022/03/10 00:01:53;;;;;;;6.63;4.75;;;;;;;;;;4940547;29;20030;-71
2022/03/10 00:04:20;;;;;;;6.18;5.00;;;;;;;;;;4940875;29;20036;-71
2022/03/10 00:06:46;;;;;;;6.35;4.95;;;;;;;;;;4941282;29;20043;-71
2022/03/10 00:09:12;;;;;;;5.55;4.53;;;;;;;;;;4941112;29;20539;-71
2022/03/10 00:11:38;;;;;;;6.40;5.07;;;;;;;;;;4940445;29;20051;-71
2022/03/10 00:14:04;;;;;;;6.22;4.95;;;;;;;;;;4941427;29;20027;-71
2022/03/10 00:16:30;;;;;;;5.57;4.55;;;;;;;;;;4939739;29;20028;-71
2022/03/10 00:18:56;;;;;;;5.80;4.40;;;;;;;;;;4941047;29;20023;-71
2022/03/10 00:21:22;;;;;;;6.30;4.40;;;;;;;;;;4939078;29;20447;-71
2022/03/10 00:23:48;;;;;;;5.18;4.68;;;;;;;;;;4939319;29;20028;-71
2022/03/10 00:26:15;;;;;;;5.70;4.72;;;;;;;;;;4937686;29;20044;-71
2022/03/10 00:28:41;;;;;;;6.53;5.20;;;;;;;;;;4938000;29;20038;-71
2022/03/10 00:31:07;;;;;;;5.57;4.82;;;;;;;;;;4937886;29;20390;-71
2022/03/10 00:33:33;;;;;;;5.40;4.53;;;;;;;;;;4967844;28;20023;-71
2022/03/10 00:35:59;;;;;;;5.82;4.43;;;;;;;;;;4937719;28;20024;-71
2022/03/10 00:38:25;;;;;;;6.00;4.18;;;;;;;;;;4937701;29;20495;-70
2022/03/10 00:40:51;;;;;;;6.35;4.88;;;;;;;;;;4937561;28;20036;-71
2022/03/10 00:43:18;;;;;;;5.57;4.60;;;;;;;;;;4937515;29;20027;-71
2022/03/10 00:45:44;;;;;;;6.38;4.43;;;;;;;;;;4937523;29;20027;-71
2022/03/10 00:48:10;;;;;;;5.97;4.60;;;;;;;;;;4937720;29;20376;-71
2022/03/10 00:50:36;;;;;;;5.15;4.25;;;;;;;;;;4937361;29;20546;-70
2022/03/10 00:53:02;;;;;;;5.55;4.90;;;;;;;;;;4937694;28;20035;-70
2022/03/10 00:55:29;;;;;;;5.28;4.22;;;;;;;;;;4937227;29;20032;-70
2022/03/10 00:57:55;;;;;;;6.10;4.30;;;;;;;;;;4937154;29;20399;-70
2022/03/10 01:00:28;;;;;;;5.82;4.57;;;;;;;;;;4937379;29;20038;-70
2022/03/10 01:02:54;;;;;;;5.97;4.85;;;;;;;;;;4936826;29;20122;-70
2022/03/10 01:05:20;;;;;;;5.28;4.53;;;;;;;;;;4937276;29;20035;-70
2022/03/10 01:07:46;;;;;;;6.28;4.88;;;;;;;;;;4937014;29;20024;-70
2022/03/10 01:10:13;;;;;;;5.88;4.57;;;;;;;;;;4968018;28;20407;-70
2022/03/10 01:12:42;;;;;;;4.97;4.10;;;;;;;;;;4937089;28;20110;-70
2022/03/10 01:15:09;;;;;;;5.95;4.90;;;;;;;;;;4936969;28;20107;-70
2022/03/10 01:17:35;;;;;;;5.05;4.13;;;;;;;;;;4936837;28;20163;-70
2022/03/10 01:20:01;;;;;;;6.68;4.65;;;;;;;;;;4937404;29;20027;-70
2022/03/10 01:22:27;;;;;;;6.28;4.78;;;;;;;;;;4936668;28;20439;-70
2022/03/10 01:24:54;;;;;;;5.55;4.68;;;;;;;;;;4937179;28;20032;-70
2022/03/10 01:27:20;;;;;;;6.07;5.00;;;;;;;;;;4936810;29;20023;-70
2022/03/10 01:29:46;;;;;;;6.80;4.90;;;;;;;;;;4936612;29;20036;-70
2022/03/10 01:32:12;;;;;;;5.53;4.90;;;;;;;;;;4936332;29;20031;-70
2022/03/10 01:34:38;;;;;;;6.38;4.80;;;;;;;;;;4936732;29;20495;-70
2022/03/10 01:37:05;;;;;;;5.90;4.47;;;;;;;;;;4935760;29;20024;-70
2022/03/10 01:39:34;;;;;;;5.50;4.68;;;;;;;;;;4936613;29;20514;-70
2022/03/10 01:42:00;;;;;;;6.32;4.57;;;;;;;;;;4935856;29;20488;-70
2022/03/10 01:44:27;;;;;;;5.22;4.50;;;;;;;;;;4936497;29;20034;-70
2022/03/10 01:46:54;;;;;;;5.22;4.55;;;;;;;;;;4936106;28;20031;-70
2022/03/10 01:49:20;;;;;;;4.32;3.58;;;;;;;;;;4936434;29;20106;-70
2022/03/10 01:51:46;;;;;;;5.70;4.43;;;;;;;;;;4935965;28;20428;-71
2022/03/10 01:54:13;;;;;;;7.20;4.30;;;;;;;;;;4936415;29;20487;-71
2022/03/10 01:56:39;;;;;;;6.78;4.45;;;;;;;;;;4936181;29;20099;-71
2022/03/10 01:59:06;;;;;;;4.30;3.67;;;;;;;;;;4936503;29;20023;-71
2022/03/10 02:01:32;;;;;;;4.75;4.20;;;;;;;;;;4934209;29;20235;-71
2022/03/10 02:03:59;;;;;;;5.32;4.15;;;;;;;;;;4935919;29;20583;-71
2022/03/10 02:06:25;;;;;;;4.28;3.88;;;;;;;;;;4936157;29;20035;-71
2022/03/10 02:11:38;;;;;;;5.25;4.05;;;;;;;;;;4935404;29;20050;-71
2022/03/10 02:17:19;;;;;;;6.55;3.90;;;;;;;;;;4936024;29;20020;-71
2022/03/10 02:19:34;;;;;;;5.13;4.15;;;;;;;;;;4935915;29;20067;-70
2022/03/10 02:22:07;;;;;;;4.40;3.78;;;;;;;;;;4935272;29;20039;-71
2022/03/10 02:24:34;;;;;;;4.22;3.80;;;;;;;;;;4936025;29;20035;-71
2022/03/10 02:27:00;;;;;;;4.72;3.53;;;;;;;;;;4935556;29;20028;-71
2022/03/10 02:29:26;;;;;;;5.28;3.70;;;;;;;;;;4935745;29;20044;-71
2022/03/10 02:31:53;;;;;;;4.30;3.80;;;;;;;;;;4934964;29;20046;-71
2022/03/10 02:34:22;;;;;;;5.13;3.80;;;;;;;;;;4935722;29;20023;-71
2022/03/10 02:36:48;;;;;;;5.57;4.05;;;;;;;;;;4935901;28;20472;-71
2022/03/10 02:39:14;;;;;;;5.07;4.18;;;;;;;;;;4935583;29;20300;-71
2022/03/10 02:41:40;;;;;;;4.68;4.05;;;;;;;;;;4934862;28;20052;-71
2022/03/10 02:44:06;;;;;;;5.45;4.35;;;;;;;;;;4935642;29;20471;-71
2022/03/10 02:46:32;;;;;;;4.93;3.67;;;;;;;;;;4935408;29;20039;-71
2022/03/10 02:49:00;;;;;;;5.35;3.75;;;;;;;;;;4935130;29;20565;-71
2022/03/10 02:51:26;;;;;;;4.82;3.88;;;;;;;;;;4934724;29;20554;-71
2022/03/10 02:53:52;;;;;;;6.55;3.78;;;;;;;;;;4935205;29;20035;-71
2022/03/10 02:56:18;;;;;;;4.50;3.58;;;;;;;;;;4935299;28;20019;-71
2022/03/10 02:58:44;;;;;;;6.15;3.90;;;;;;;;;;4935237;29;20510;-71
2022/03/10 03:01:10;;;;;;;4.88;3.90;;;;;;;;;;4935440;29;20028;-71
2022/03/10 03:03:36;;;;;;;4.07;3.67;;;;;;;;;;4934256;29;20102;-71
2022/03/10 03:06:02;;;;;;;4.75;3.90;;;;;;;;;;4935446;29;20036;-71
2022/03/10 03:08:29;;;;;;;4.75;3.72;;;;;;;;;;4935316;29;20495;-71
2022/03/10 03:10:55;;;;;;;4.88;3.70;;;;;;;;;;4935102;29;20059;-71
2022/03/10 03:13:21;;;;;;;4.78;3.90;;;;;;;;;;4934867;29;20414;-71
2022/03/10 03:15:47;;;;;;;4.80;3.92;;;;;;;;;;4935078;29;20020;-71
2022/03/10 03:18:13;;;;;;;5.30;3.72;;;;;;;;;;4935110;28;20032;-71
2022/03/10 03:20:39;;;;;;;4.38;3.97;;;;;;;;;;4935038;29;20160;-71
2022/03/10 03:23:05;;;;;;;4.57;3.75;;;;;;;;;;4935103;29;20536;-71
2022/03/10 03:25:31;;;;;;;5.15;4.05;;;;;;;;;;4935282;28;20603;-71
2022/03/10 03:27:58;;;;;;;5.00;3.97;;;;;;;;;;4934875;29;20027;-71
2022/03/10 03:30:24;;;;;;;4.93;4.10;;;;;;;;;;4934868;28;20082;-71
2022/03/10 03:32:50;;;;;;;4.22;3.83;;;;;;;;;;4934921;29;20028;-70
2022/03/10 03:35:16;;;;;;;4.72;3.92;;;;;;;;;;4934937;29;20488;-70
2022/03/10 03:37:42;;;;;;;4.65;3.80;;;;;;;;;;4934919;29;20035;-70
2022/03/10 03:40:09;;;;;;;4.90;4.03;;;;;;;;;;4935088;29;20056;-70
2022/03/10 03:42:35;;;;;;;4.80;4.22;;;;;;;;;;4934864;29;20406;-70
2022/03/10 03:45:02;;;;;;;5.03;3.95;;;;;;;;;;4934939;28;20031;-71
2022/03/10 03:47:28;;;;;;;7.85;4.38;;;;;;;;;;4935250;28;20024;-71
2022/03/10 03:49:55;;;;;;;4.93;4.00;;;;;;;;;;4934711;29;20020;-71
2022/03/10 03:52:21;;;;;;;4.82;4.38;;;;;;;;;;4934202;28;20023;-70
2022/03/10 03:54:47;;;;;;;4.82;3.85;;;;;;;;;;4934694;29;20023;-70
2022/03/10 03:57:13;;;;;;;5.05;4.35;;;;;;;;;;4935224;29;20024;-70
2022/03/10 03:59:39;;;;;;;4.55;3.78;;;;;;;;;;4936063;29;20023;-71
2022/03/10 04:02:06;;;;;;;4.45;4.05;;;;;;;;;;4937922;29;20050;-71
2022/03/10 04:04:32;;;;;;;4.43;4.03;;;;;;;;;;4937964;29;20052;-71
2022/03/10 04:06:58;;;;;;;5.53;4.05;;;;;;;;;;4937261;29;20046;-71
2022/03/10 04:09:24;;;;;;;5.50;3.83;;;;;;;;;;4938411;29;20036;-70
2022/03/10 04:11:50;;;;;;;6.78;4.30;;;;;;;;;;4937749;29;20055;-71
2022/03/10 04:14:18;;;;;;;5.13;4.18;;;;;;;;;;4938036;29;20020;-71
2022/03/10 04:16:44;;;;;;;4.38;3.88;;;;;;;;;;4938217;29;20402;-71
2022/03/10 04:19:11;;;;;;;4.93;4.40;;;;;;;;;;4938235;29;20526;-70
2022/03/10 04:21:37;;;;;;;4.68;4.28;;;;;;;;;;4937573;29;20539;-70
2022/03/10 04:24:03;;;;;;;4.80;3.97;;;;;;;;;;4937965;29;20090;-71
2022/03/10 04:26:29;;;;;;;4.75;4.32;;;;;;;;;;4937843;29;20032;-71
2022/03/10 04:28:56;;;;;;;4.97;4.38;;;;;;;;;;4937774;29;20032;-71
2022/03/10 04:31:23;;;;;;;4.32;3.90;;;;;;;;;;4937756;29;20110;-70
2022/03/10 04:33:49;;;;;;;4.43;3.97;;;;;;;;;;4937423;29;20028;-71
2022/03/10 04:36:15;;;;;;;4.60;3.85;;;;;;;;;;4937758;29;20032;-71
2022/03/10 04:38:41;;;;;;;4.68;4.03;;;;;;;;;;4937992;28;20471;-71
2022/03/10 04:41:07;;;;;;;4.93;4.45;;;;;;;;;;4937580;29;20027;-70
2022/03/10 04:43:34;;;;;;;4.25;3.85;;;;;;;;;;4936885;28;20024;-70
2022/03/10 04:46:00;;;;;;;5.13;4.55;;;;;;;;;;4937990;29;20034;-70
2022/03/10 04:48:26;;;;;;;4.60;4.05;;;;;;;;;;4936606;29;20032;-70
2022/03/10 04:50:53;;;;;;;4.70;4.30;;;;;;;;;;4937271;29;20024;-70
2022/03/10 04:53:19;;;;;;;4.97;4.13;;;;;;;;;;4937331;29;20023;-70
2022/03/10 04:55:45;;;;;;;4.65;4.00;;;;;;;;;;4937190;29;20510;-70
2022/03/10 04:58:11;;;;;;;5.85;4.15;;;;;;;;;;4937361;29;20044;-70
2022/03/10 05:00:37;;;;;;;5.20;4.60;;;;;;;;;;4937316;28;20110;-70
2022/03/10 05:03:03;;;;;;;5.32;4.28;;;;;;;;;;4937332;28;20494;-70
2022/03/10 05:05:29;;;;;;;4.53;4.13;;;;;;;;;;4937256;29;20032;-70
2022/03/10 05:07:55;;;;;;;6.20;4.15;;;;;;;;;;4937359;28;20040;-71
2022/03/10 05:10:22;;;;;;;5.43;4.30;;;;;;;;;;4936732;29;20032;-71
2022/03/10 05:12:49;;;;;;;5.60;4.43;;;;;;;;;;4937232;28;20032;-71
2022/03/10 05:15:19;;;;;;;5.97;4.45;;;;;;;;;;4933880;29;20070;-70
2022/03/10 05:17:45;;;;;;;4.80;4.30;;;;;;;;;;4937174;28;20024;-70
2022/03/10 05:20:12;;;;;;;5.05;4.20;;;;;;;;;;4937055;29;20028;-70
2022/03/10 05:22:42;;;;;;;4.78;4.28;;;;;;;;;;4937416;29;20035;-70
2022/03/10 05:25:08;;;;;;;5.53;4.60;;;;;;;;;;4936640;29;20030;-70
2022/03/10 05:27:35;;;;;;;4.40;4.00;;;;;;;;;;4936910;29;20023;-70
2022/03/10 05:30:01;;;;;;;5.00;4.50;;;;;;;;;;4936420;28;20078;-70
2022/03/10 05:32:27;;;;;;;5.28;4.15;;;;;;;;;;4936667;29;20032;-70
2022/03/10 05:34:54;;;;;;;5.15;4.32;;;;;;;;;;4937142;29;20549;-71
2022/03/10 05:37:21;;;;;;;5.75;4.75;;;;;;;;;;4937153;29;20074;-72
2022/03/10 05:39:47;;;;;;;7.18;4.70;;;;;;;;;;4936442;29;20030;-72
2022/03/10 05:42:13;;;;;;;6.85;4.75;;;;;;;;;;4936045;29;20042;-72
2022/03/10 05:44:39;;;;;;;6.22;4.57;;;;;;;;;;4936342;29;20097;-72
2022/03/10 05:47:06;;;;;;;5.45;4.40;;;;;;;;;;4936633;28;20039;-72
2022/03/10 05:49:33;;;;;;;5.15;4.53;;;;;;;;;;4936203;29;20027;-72
2022/03/10 05:51:59;;;;;;;4.80;4.32;;;;;;;;;;4935791;29;20030;-72
2022/03/10 05:54:25;;;;;;;5.30;4.72;;;;;;;;;;4936268;29;20030;-72
2022/03/10 05:56:51;;;;;;;5.30;4.55;;;;;;;;;;4936787;29;20035;-72
2022/03/10 05:59:19;;;;;;;5.00;4.50;;;;;;;;;;4967021;28;20479;-72
2022/03/10 06:01:45;;;;;;;5.70;4.40;;;;;;;;;;4935785;28;20032;-72
2022/03/10 06:04:12;;;;;;;4.25;3.85;;;;;;;;;;4935629;28;20052;-72
2022/03/10 06:06:38;;;;;;;4.93;4.43;;;;;;;;;;4936067;29;20028;-72
2022/03/10 06:09:04;;;;;;;6.68;4.57;;;;;;;;;;4936176;28;20402;-72
2022/03/10 06:11:31;;;;;;;5.18;4.68;;;;;;;;;;4935318;29;20156;-72
2022/03/10 06:13:57;;;;;;;6.15;4.75;;;;;;;;;;4936080;29;20020;-72
2022/03/10 06:16:23;;;;;;;7.32;4.22;;;;;;;;;;4935894;28;20027;-72
2022/03/10 06:18:49;;;;;;;5.38;4.50;;;;;;;;;;4936054;29;20028;-72
2022/03/10 06:21:16;;;;;;;5.43;4.53;;;;;;;;;;4935275;28;20070;-72
2022/03/10 06:23:42;;;;;;;5.28;4.22;;;;;;;;;;4916569;29;20045;-73
2022/03/10 06:26:08;;;;;;;6.10;4.40;;;;;;;;;;4916541;29;20044;-72
2022/03/10 06:28:34;;;;;;;4.80;4.28;;;;;;;;;;4916668;29;20277;-72
2022/03/10 06:31:00;;;;;;;5.05;4.60;;;;;;;;;;4916395;29;20039;-72
2022/03/10 06:33:26;;;;;;;5.53;4.82;;;;;;;;;;4916178;29;20024;-72
2022/03/10 06:35:53;;;;;;;5.90;4.72;;;;;;;;;;4916615;29;20484;-72
2022/03/10 06:38:19;;;;;;;6.18;4.78;;;;;;;;;;4916847;29;20024;-72
2022/03/10 06:40:45;;;;;;;5.60;4.60;;;;;;;;;;4916583;29;20498;-72
2022/03/10 06:43:11;;;;;;;5.35;4.47;;;;;;;;;;4959830;28;20440;-72
2022/03/10 06:45:37;;;;;;;5.22;4.28;;;;;;;;;;4935140;29;20031;-72
2022/03/10 06:48:03;;;;;;;4.65;4.15;;;;;;;;;;4935677;29;20141;-72
2022/03/10 06:50:29;;;;;;;5.32;4.43;;;;;;;;;;4935244;29;20038;-72
2022/03/10 06:52:56;;;;;;;5.82;4.90;;;;;;;;;;4935248;29;20031;-72
2022/03/10 06:55:26;;;;;;;5.15;4.38;;;;;;;;;;4935096;29;20031;-72
2022/03/10 06:57:52;;;;;;;5.70;4.43;;;;;;;;;;4935205;29;20027;-72
2022/03/10 07:00:20;;;;;;;4.80;4.30;;;;;;;;;;4935107;29;20443;-72
2022/03/10 07:02:46;;;;;;;6.07;4.97;;;;;;;;;;4935361;29;20095;-72
2022/03/10 07:05:12;;;;;;;5.50;4.65;;;;;;;;;;4934950;29;20055;-72
2022/03/10 07:07:38;;;;;;;5.38;4.60;;;;;;;;;;4935533;29;20028;-72
2022/03/10 07:10:05;;;;;;;4.70;4.30;;;;;;;;;;4935411;29;20032;-72
2022/03/10 07:12:34;;;;;;;5.68;4.80;;;;;;;;;;4935543;29;20099;-72
2022/03/10 07:15:00;;;;;;;6.55;5.00;;;;;;;;;;4935803;29;20023;-72
2022/03/10 07:17:26;;;;;;;4.70;4.20;;;;;;;;;;4935848;29;20032;-72
2022/03/10 07:19:52;;;;;;;5.20;4.40;;;;;;;;;;4935818;29;20114;-72
2022/03/10 07:22:19;;;;;;;5.05;4.45;;;;;;;;;;4935036;29;20034;-72
2022/03/10 07:24:45;;;;;;;6.60;4.68;;;;;;;;;;4966628;28;20075;-72
2022/03/10 07:27:12;;;;;;;5.25;4.57;;;;;;;;;;4935415;28;20059;-72
2022/03/10 07:29:38;;;;;;;6.78;5.13;;;;;;;;;;4935546;28;20031;-72
2022/03/10 07:32:04;;;;;;;5.22;4.22;;;;;;;;;;4934742;29;20031;-72
2022/03/10 07:34:31;;;;;;;5.32;4.50;;;;;;;;;;4938148;29;20028;-72
2022/03/10 07:36:57;;;;;;;6.28;4.30;;;;;;;;;;4939068;29;20020;-72
2022/03/10 07:39:23;;;;;;;6.07;4.63;;;;;;;;;;4939585;29;20024;-72
2022/03/10 07:41:50;;;;;;;5.15;4.45;;;;;;;;;;4938497;28;20032;-72
2022/03/10 07:44:16;;;;;;;4.90;4.40;;;;;;;;;;4939612;29;20040;-72
2022/03/10 07:46:42;;;;;;;6.60;5.00;;;;;;;;;;4938726;29;20043;-72
2022/03/10 07:49:08;;;;;;;6.20;4.88;;;;;;;;;;4939091;29;20399;-71
2022/03/10 07:51:35;;;;;;;7.25;5.03;;;;;;;;;;4938243;29;20028;-71
2022/03/10 07:54:01;;;;;;;4.90;3.88;;;;;;;;;;4939560;29;20107;-71
2022/03/10 07:56:27;;;;;;;6.10;4.82;;;;;;;;;;4938531;29;20149;-72
2022/03/10 07:58:53;;;;;;;7.30;5.47;;;;;;;;;;4939437;29;20043;-72
2022/03/10 08:01:20;;;;;;;6.60;5.32;;;;;;;;;;4936646;28;20054;-72
2022/03/10 08:03:47;;;;;;;7.85;5.18;;;;;;;;;;4946606;29;20071;-72
2022/03/10 08:06:13;;;;;;;7.65;5.13;;;;;;;;;;4974955;28;20044;-72
2022/03/10 08:08:39;;;;;;;6.38;4.78;;;;;;;;;;4939831;29;20032;-72
2022/03/10 08:11:06;;;;;;;7.72;5.25;;;;;;;;;;4939162;28;20411;-73
2022/03/10 08:13:32;;;;;;;7.93;5.68;;;;;;;;;;4937683;28;20036;-71
2022/03/10 08:15:59;;;;;;;11.02;5.60;;;;;;;;;;4929333;29;20024;-66
2022/03/10 08:18:26;;;;;;;8.27;5.55;;;;;;;;;;4931470;28;20031;-69
2022/03/10 08:20:52;;;;;;;6.28;5.00;;;;;;;;;;4932037;29;20105;-70
2022/03/10 08:23:19;;;;;;;7.70;4.90;;;;;;;;;;4930460;29;20031;-69
2022/03/10 08:25:45;;;;;;;7.43;4.80;;;;;;;;;;4928973;29;20118;-70
2022/03/10 08:28:13;;;;;;;6.20;4.68;;;;;;;;;;4929404;29;20044;-69
2022/03/10 08:30:39;;;;;;;10.13;5.22;;;;;;;;;;4944345;29;20063;-69
2022/03/10 08:33:05;;;;;;;7.22;4.78;;;;;;;;;;4930343;29;20050;-69
2022/03/10 08:35:32;;;;;;;6.07;4.60;;;;;;;;;;4929980;29;20036;-69
2022/03/10 08:37:58;;;;;;;8.80;4.93;;;;;;;;;;4930797;29;20062;-69
2022/03/10 08:40:25;;;;;;;10.15;5.10;;;;;;;;;;4931044;29;20051;-70
2022/03/10 08:42:51;;;;;;;6.68;5.00;;;;;;;;;;4929063;28;20146;-70
2022/03/10 08:45:18;;;;;;;8.15;5.28;;;;;;;;;;4933406;28;20027;-71
2022/03/10 08:47:48;;;;;;;9.98;5.63;;;;;;;;;;4929466;29;20039;-70
2022/03/10 08:50:14;;;;;;;5.68;4.72;;;;;;;;;;4926017;28;20036;-71
2022/03/10 08:52:40;;;;;;;7.13;4.68;;;;;;;;;;4931447;29;20102;-70
2022/03/10 08:55:11;;;;;;;7.50;4.80;;;;;;;;;;4918458;29;20083;-70
2022/03/10 08:57:38;;;;;;;6.60;4.80;;;;;;;;;;4929168;29;20019;-70
2022/03/10 09:00:05;;;;;;;8.32;4.88;;;;;;;;;;4930124;29;20031;-70
2022/03/10 09:02:32;;;;;;;6.70;4.22;;;;;;;;;;4929397;29;20418;-71
2022/03/10 09:04:58;;;;;;;8.02;4.95;;;;;;;;;;4928488;29;20055;-71
2022/03/10 09:07:24;;;;;;;7.97;5.10;;;;;;;;;;4929552;28;20087;-71
2022/03/10 09:09:53;;;;;;;6.95;5.00;;;;;;;;;;4930700;28;20028;-71
2022/03/10 09:12:19;;;;;;;8.65;5.00;;;;;;;;;;4929293;29;20120;-70
2022/03/10 09:14:46;;;;;;;6.05;4.72;;;;;;;;;;4930261;29;20735;-71
2022/03/10 09:17:13;;;;;;;6.20;4.53;;;;;;;;;;4929664;29;20028;-70
2022/03/10 09:19:39;;;;;;;6.97;5.15;;;;;;;;;;4928546;29;20040;-70
2022/03/10 09:22:14;;;;;;;6.75;5.10;;;;;;;;;;4929034;29;20044;-69
2022/03/10 09:24:40;;;;;;;5.65;4.57;;;;;;;;;;4929841;29;20062;-69
2022/03/10 09:27:09;;;;;;;6.05;4.60;;;;;;;;;;4928890;29;20032;-69
2022/03/10 09:29:35;;;;;;;5.63;4.43;;;;;;;;;;4927890;29;20883;-70
2022/03/10 09:32:01;;;;;;;6.20;4.20;;;;;;;;;;4930985;29;20851;-70
2022/03/10 09:34:28;;;;;;;8.90;4.88;;;;;;;;;;4927043;29;20036;-70
2022/03/10 09:36:54;;;;;;;6.03;4.70;;;;;;;;;;4927032;29;20043;-70
2022/03/10 09:39:23;;;;;;;5.65;4.63;;;;;;;;;;4929425;29;20538;-69
2022/03/10 09:41:49;;;;;;;8.52;4.75;;;;;;;;;;4928839;29;20031;-69
2022/03/10 09:44:18;;;;;;;6.75;5.35;;;;;;;;;;4927910;29;20071;-70
2022/03/10 09:46:47;;;;;;;6.25;5.03;;;;;;;;;;4926149;28;20038;-70
2022/03/10 09:49:13;;;;;;;7.68;4.78;;;;;;;;;;4927388;29;20036;-70
2022/03/10 09:51:42;;;;;;;6.40;4.32;;;;;;;;;;4928540;29;20043;-70
2022/03/10 09:54:08;;;;;;;9.18;5.43;;;;;;;;;;4928919;29;20139;-69
2022/03/10 09:56:36;;;;;;;8.80;5.60;;;;;;;;;;4942689;28;20820;-69
2022/03/10 09:59:06;;;;;;;6.03;4.55;;;;;;;;;;4928481;28;20031;-70
2022/03/10 10:01:35;;;;;;;6.35;4.63;;;;;;;;;;4928726;29;20035;-69
2022/03/10 10:04:01;;;;;;;6.85;4.78;;;;;;;;;;4928039;29;20063;-68
2022/03/10 10:06:28;;;;;;;6.38;4.85;;;;;;;;;;4929429;28;20598;-69
2022/03/10 10:08:55;;;;;;;6.35;5.03;;;;;;;;;;4929107;29;20415;-69
2022/03/10 10:11:30;;;;;;;8.57;5.55;;;;;;;;;;4928309;29;20180;-69
2022/03/10 10:13:56;;;;;;;5.75;4.47;;;;;;;;;;4928859;29;20407;-69
2022/03/10 10:16:23;;;;;;;6.97;5.03;;;;;;;;;;4928827;29;20094;-70
2022/03/10 10:18:53;;;;;;;6.25;4.50;;;;;;;;;;4928856;29;20804;-69
2022/03/10 10:21:23;;;;;;;5.10;4.30;;;;;;;;;;4926417;29;20042;-70
2022/03/10 10:23:51;;;;;;;8.50;5.10;;;;;;;;;;4928522;29;20113;-69
2022/03/10 10:26:18;;;;;;;9.35;5.78;;;;;;;;;;4926987;29;20039;-69
2022/03/10 10:28:45;;;;;;;8.30;5.85;;;;;;;;;;4928126;28;20043;-69
2022/03/10 10:31:13;;;;;;;9.07;5.35;;;;;;;;;;4928481;29;20075;-69
2022/03/10 10:33:41;;;;;;;7.07;5.15;;;;;;;;;;4927514;28;20031;-69
2022/03/10 10:36:16;;;;;;;7.35;5.13;;;;;;;;;;4928122;29;20043;-69
2022/03/10 10:38:43;;;;;;;9.10;4.50;;;;;;;;;;4928205;29;20066;-69
2022/03/10 10:41:17;;;;;;;8.30;4.85;;;;;;;;;;4939725;29;20617;-69
2022/03/10 10:43:46;;;;;;;7.10;4.68;;;;;;;;;;4926784;29;20036;-70
2022/03/10 10:46:26;;;;;;;9.70;5.28;;;;;;;;;;4930558;29;20054;-69
2022/03/10 10:48:53;;;;;;;10.52;5.15;;;;;;;;;;4926267;29;20036;-69
2022/03/10 10:51:32;;;;;;;12.70;5.50;;;;;;;;;;4926901;29;20040;-69
2022/03/10 10:53:59;;;;;;;11.02;5.15;;;;;;;;;;4922604;29;20024;-70
2022/03/10 10:56:26;;;;;;;8.57;4.85;;;;;;;;;;4923222;29;20055;-69
2022/03/10 10:58:54;;;;;;;8.05;5.05;;;;;;;;;;4926347;29;20091;-69
2022/03/10 11:01:31;;;;;;;6.45;3.85;;;;;;;;;;4922827;28;20134;-69
2022/03/10 11:03:57;;;;;;;11.25;4.50;;;;;;;;;;4921687;29;20047;-70
2022/03/10 11:06:24;;;;;;;5.97;4.22;;;;;;;;;;4923184;29;20138;-69
2022/03/10 11:08:51;;;;;;;9.05;4.85;;;;;;;;;;4923244;29;20043;-70
2022/03/10 11:11:21;;;;;;;8.82;4.80;;;;;;;;;;4924161;29;20035;-71
2022/03/10 11:13:50;;;;;;;15.43;4.82;;;;;;;;;;4928617;29;20035;-69
2022/03/10 11:16:17;;;;;;;8.10;4.93;;;;;;;;;;4924163;29;20495;-71
2022/03/10 11:18:47;;;;;;;11.40;6.03;;;;;;;;;;4925202;28;20442;-70
2022/03/10 11:21:41;;;;;;;9.13;4.75;;;;;;;;;;4925757;29;20035;-71
2022/03/10 11:24:16;;;;;;;6.68;4.20;;;;;;;;;;4928922;29;20075;-71
2022/03/10 11:26:55;;;;;;;10.75;4.65;;;;;;;;;;4923057;29;20035;-71
2022/03/10 11:29:25;;;;;;;9.82;4.88;;;;;;;;;;4937826;28;20028;-71
2022/03/10 11:31:53;;;;;;;10.00;4.65;;;;;;;;;;4935841;28;20036;-71
2022/03/10 11:34:38;;;;;;;7.90;4.68;;;;;;;;;;4928143;29;20607;-70
2022/03/10 11:37:11;;;;;;;12.27;5.43;;;;;;;;;;4932929;29;20075;-70
2022/03/10 11:39:56;;;;;;;9.63;4.53;;;;;;;;;;4941168;29;20038;-70
2022/03/10 11:42:28;;;;;;;13.32;4.57;;;;;;;;;;4944848;28;20122;-70
2022/03/10 11:45:13;;;;;;;18.83;5.30;;;;;;;;;;4931799;28;20048;-70
2022/03/10 11:47:40;;;;;;;16.08;4.45;;;;;;;;;;4932833;28;20036;-70
2022/03/10 11:50:25;;;;;;;16.73;4.90;;;;;;;;;;4932900;28;20509;-70
2022/03/10 11:53:01;;;;;;;16.77;5.97;;;;;;;;;;4914670;29;20047;-70
2022/03/10 11:55:42;;;;;;;11.30;5.03;;;;;;;;;;4932296;29;20028;-70
2022/03/10 11:58:11;;;;;;;16.02;4.90;;;;;;;;;;4932514;29;20510;-71
2022/03/10 12:00:40;;;;;;;10.75;4.50;;;;;;;;;;4932550;29;20110;-72
2022/03/10 12:03:08;;;;;;;12.13;4.82;;;;;;;;;;4933479;28;20031;-71
2022/03/10 12:06:00;;;;;;;19.40;6.22;;;;;;;;;;4933026;29;20050;-70
2022/03/10 12:08:29;;;;;;;18.70;5.90;;;;;;;;;;4934749;29;20083;-70
2022/03/10 12:10:55;;;;;;;16.00;4.72;;;;;;;;;;4937931;28;20039;-70
2022/03/10 12:13:33;;;;;;;13.38;4.78;;;;;;;;;;4930044;29;20035;-71
2022/03/10 12:16:00;;;;;;;14.15;4.82;;;;;;;;;;4932594;29;20032;-71
2022/03/10 12:18:30;;;;;;;16.90;5.53;;;;;;;;;;4915742;29;20028;-70
2022/03/10 12:20:58;;;;;;;16.98;5.90;;;;;;;;;;4936542;29;20508;-71
2022/03/10 12:23:26;;;;;;;16.08;5.68;;;;;;;;;;4942073;28;20039;-70
2022/03/10 12:26:07;;;;;;;25.85;5.68;;;20.90;55.70;;;;;;4969810;28;20515;-74
2022/03/10 12:28:38;;;;;;;12.00;4.88;;;19.40;55.30;;;;;;4936181;29;20507;-72
2022/03/10 12:31:19;;;;;;;20.10;5.32;;;19.00;58.30;;;;;;4931509;29;20038;-72
2022/03/10 12:33:59;;;;;;;19.13;5.78;;;20.20;58.50;;;;;;4932581;29;20853;-72
2022/03/10 12:36:54;;;;;;;13.00;5.40;;;21.40;58.90;;;;;;4933411;29;20050;-72
2022/03/10 12:39:26;;;;;;;9.88;5.38;;;21.70;58.10;;;;;;4932047;29;20107;-72
2022/03/10 12:42:06;;;;;;;12.43;5.28;;;21.90;58.80;;;;;;4932743;29;20035;-72
2022/03/10 12:44:34;;;;;;;11.52;5.10;;;20.70;58.20;;;;;;4934042;29;20031;-73
2022/03/10 12:47:09;;;;;;;12.25;5.78;;;22.00;59.80;;;;;;4933086;29;20032;-72
2022/03/10 12:49:43;;;;;;;13.63;5.20;;;21.10;58.50;;;;;;4932601;29;20032;-73
2022/03/10 12:52:25;;;;;;;8.20;5.15;;;21.70;58.10;;;;;;4929968;29;20464;-72
2022/03/10 12:54:52;;;;;;;12.40;5.20;;;21.00;57.20;;;;;;4928958;29;20074;-72
2022/03/10 12:57:21;;;;;;;12.32;5.28;;;23.40;60.50;;;;;;4924538;29;20062;-73
2022/03/10 12:59:48;;;;;;;11.23;5.03;;;23.60;60.70;;;;;;4926099;29;20048;-74
2022/03/10 13:02:19;;;;;;;11.77;4.93;;;18.50;58.00;;;;;;4927057;29;20103;-73
2022/03/10 13:04:57;;;;;;;11.10;5.00;;;21.00;57.70;;;;;;4926493;29;20044;-73
2022/03/10 13:07:29;;;;;;;14.25;5.30;;;21.00;57.00;;;;;;4927399;29;20051;-74
2022/03/10 13:09:57;;;;;;;9.80;4.72;;;22.10;59.40;;;;;;4925182;29;20442;-74
2022/03/10 13:12:30;;;;;;;8.20;4.72;;;24.40;60.20;;;;;;4924670;28;20163;-73
2022/03/10 13:14:57;;;;;;;10.13;4.68;;;20.90;58.40;;;;;;4928122;29;20028;-73
2022/03/10 13:17:36;;;;;;;10.45;4.50;;;20.60;58.30;;;;;;4927225;29;20047;-75
2022/03/10 13:20:12;;;;;;;10.05;4.50;;;21.20;56.70;;;;;;4923798;29;20031;-74
2022/03/10 13:22:44;;;;;;;12.25;4.55;;;22.60;58.00;;;;;;4924798;29;20039;-73
2022/03/10 13:25:10;;;;;;;7.97;4.70;;;20.60;57.20;;;;;;4927123;29;20032;-73
2022/03/10 13:27:36;;;;;;;13.98;4.68;;;19.10;58.00;;;;;;4925486;29;20028;-73
2022/03/10 13:30:02;;;;;;;9.45;4.75;;;19.20;58.40;;;;;;4922873;29;20487;-73
2022/03/10 13:32:31;;;;;;;6.97;3.83;;;23.00;59.90;;;;;;4924317;29;20500;-73
2022/03/10 13:35:06;;;;;;;8.75;3.92;;;21.90;58.40;;;;;;4920334;29;20054;-74
2022/03/10 13:37:33;;;;;;;9.55;4.45;;;19.50;56.70;;;;;;4928110;29;20028;-73
2022/03/10 13:39:59;;;;;;;9.15;4.53;;;17.70;57.40;;;;;;4925115;29;20024;-73
2022/03/10 13:42:25;;;;;;;9.07;4.18;;;20.40;58.90;;;;;;4925851;29;20039;-73
2022/03/10 13:45:21;;;;;;;10.88;4.78;;;22.90;59.80;;;;;;4925760;29;20035;-73
2022/03/10 13:47:50;;;;;;;12.15;4.40;;;21.20;55.90;;;;;;4930376;29;20035;-73
2022/03/10 13:50:23;;;;;;;7.95;3.53;;;24.20;59.10;;;;;;4925671;29;20044;-73
2022/03/10 13:52:51;;;;;;;7.32;4.00;;;23.70;58.40;;;;;;4926788;29;20043;-72
2022/03/10 13:55:16;;;;;;;11.15;4.43;;;19.90;57.40;;;;;;4926966;29;20554;-72
2022/03/10 13:57:45;;;;;;;8.93;4.30;;;20.70;58.50;;;;;;4927109;29;20048;-73
2022/03/10 14:00:12;;;;;;;10.00;4.07;;;18.40;56.90;;;;;;4927039;29;20127;-73
2022/03/10 14:02:50;;;;;;;9.70;4.72;;;21.40;58.60;;;;;;4926691;29;20102;-73
2022/03/10 14:05:16;;;;;;;6.90;3.92;;;21.20;56.30;;;;;;4926485;29;20063;-72
2022/03/10 14:08:12;;;;;;;6.90;4.05;;;24.70;60.20;;;;;;4925105;29;20050;-73
2022/03/10 14:10:39;;;;;;;9.38;3.75;;;22.10;56.80;;;;;;4929350;29;20554;-73
2022/03/10 14:13:09;;;;;;;9.75;3.88;;;23.90;59.90;;;;;;4926898;29;20037;-73
2022/03/10 14:15:40;;;;;;;8.52;3.70;;;24.00;59.60;;;;;;4926316;29;20047;-73
2022/03/10 14:18:11;;;;;;;9.13;3.70;;;21.00;57.00;;;;;;4926679;29;20808;-77
2022/03/10 14:20:44;;;;;;;10.70;3.85;;;23.30;59.00;;;;;;4926392;29;20059;-73
2022/03/10 14:23:10;;;;;;;7.00;4.00;;;18.80;55.30;;;;;;4926859;28;20031;-73
2022/03/10 14:25:45;;;;;;;10.82;3.70;;;19.50;57.40;;;;;;4924796;29;20039;-74
2022/03/10 14:28:12;;;;;;;8.27;3.83;;;22.00;56.80;;;;;;4928794;29;20051;-73
2022/03/10 14:30:38;;;;;;;9.02;4.32;;;20.40;57.80;;;;;;4923591;29;20040;-73
2022/03/10 14:33:08;;;;;;;8.73;3.83;;;17.80;56.30;;;;;;4922538;29;20023;-73